sensor_id;sensor_type;location;lat;lon;timestamp;P1;durP1;ratioP1;P2;durP2;ratioP2
9508;SDS011;4792;50.088;8.122;2024-02-16T00:01:03;7.70;;;2.73;;
9508;SDS011;4792;50.088;8.122;2024-02-16T00:03:31;7.37;;;2.93;;
9508;SDS011;4792;50.088;8.122;2024-02-16T00:06:00;6.10;;;2.53;;
9508;SDS011;4792;50.088;8.122;2024-02-16T00:08:28;7.83;;;3.00;;
9508;SDS011;4792;50.088;8.122;2024-02-16T00:10:56;7.17;;;2.83;;
9508;SDS011;4792;50.088;8.122;2024-02-16T00:13:24;3.80;;;2.60;;
9508;SDS011;4792;50.088;8.122;2024-02-16T00:15:52;4.27;;;2.60;;
9508;SDS011;4792;50.088;8.122;2024-02-16T00:18:20;5.47;;;3.00;;
9508;SDS011;4792;50.088;8.122;2024-02-16T00:20:47;6.03;;;3.07;;
9508;SDS011;4792;50.088;8.122;2024-02-16T00:23:17;4.10;;;2.80;;
9508;SDS011;4792;50.088;8.122;2024-02-16T00:25:45;7.50;;;2.87;;
9508;SDS011;4792;50.088;8.122;2024-02-16T00:28:13;5.20;;;2.70;;
9508;SDS011;4792;50.088;8.122;2024-02-16T00:30:41;5.53;;;2.70;;
9508;SDS011;4792;50.088;8.122;2024-02-16T00:33:08;6.70;;;2.60;;
9508;SDS011;4792;50.088;8.122;2024-02-16T00:35:36;4.40;;;2.83;;
9508;SDS011;4792;50.088;8.122;2024-02-16T00:38:04;6.73;;;3.03;;
9508;SDS011;4792;50.088;8.122;2024-02-16T00:40:33;8.70;;;3.17;;
9508;SDS011;4792;50.088;8.122;2024-02-16T00:43:02;5.07;;;3.00;;
9508;SDS011;4792;50.088;8.122;2024-02-16T00:45:30;3.90;;;2.53;;
9508;SDS011;4792;50.088;8.122;2024-02-16T00:47:58;12.50;;;3.43;;
9508;SDS011;4792;50.088;8.122;2024-02-16T00:50:28;8.67;;;3.37;;
9508;SDS011;4792;50.088;8.122;2024-02-16T00:52:56;6.97;;;3.10;;
9508;SDS011;4792;50.088;8.122;2024-02-16T00:55:23;6.97;;;3.40;;
9508;SDS011;4792;50.088;8.122;2024-02-16T00:57:52;7.57;;;3.17;;
9508;SDS011;4792;50.088;8.122;2024-02-16T01:00:20;3.50;;;2.47;;
9508;SDS011;4792;50.088;8.122;2024-02-16T01:02:52;6.43;;;2.90;;
9508;SDS011;4792;50.088;8.122;2024-02-16T01:05:19;5.70;;;3.03;;
9508;SDS011;4792;50.088;8.122;2024-02-16T01:07:49;6.57;;;3.07;;
9508;SDS011;4792;50.088;8.122;2024-02-16T01:10:17;5.47;;;3.40;;
9508;SDS011;4792;50.088;8.122;2024-02-16T01:12:44;4.97;;;2.50;;
9508;SDS011;4792;50.088;8.122;2024-02-16T01:15:13;7.17;;;3.07;;
9508;SDS011;4792;50.088;8.122;2024-02-16T01:17:41;5.63;;;3.53;;
9508;SDS011;4792;50.088;8.122;2024-02-16T01:20:09;4.40;;;2.77;;
9508;SDS011;4792;50.088;8.122;2024-02-16T01:22:39;6.50;;;3.10;;
9508;SDS011;4792;50.088;8.122;2024-02-16T01:25:07;5.70;;;3.03;;
9508;SDS011;4792;50.088;8.122;2024-02-16T01:27:35;4.67;;;2.93;;
9508;SDS011;4792;50.088;8.122;2024-02-16T01:30:04;5.60;;;3.17;;
9508;SDS011;4792;50.088;8.122;2024-02-16T01:32:33;4.53;;;2.70;;
9508;SDS011;4792;50.088;8.122;2024-02-16T01:35:01;6.77;;;3.10;;
9508;SDS011;4792;50.088;8.122;2024-02-16T01:37:29;5.67;;;2.93;;
9508;SDS011;4792;50.088;8.122;2024-02-16T01:39:57;4.10;;;2.67;;
9508;SDS011;4792;50.088;8.122;2024-02-16T01:42:25;6.03;;;2.30;;
9508;SDS011;4792;50.088;8.122;2024-02-16T01:44:53;5.97;;;3.23;;
9508;SDS011;4792;50.088;8.122;2024-02-16T01:47:21;4.27;;;2.70;;
9508;SDS011;4792;50.088;8.122;2024-02-16T01:49:50;4.53;;;2.87;;
9508;SDS011;4792;50.088;8.122;2024-02-16T01:52:18;3.60;;;2.60;;
9508;SDS011;4792;50.088;8.122;2024-02-16T01:54:46;6.83;;;3.03;;
9508;SDS011;4792;50.088;8.122;2024-02-16T01:57:13;6.87;;;2.60;;
9508;SDS011;4792;50.088;8.122;2024-02-16T01:59:41;7.13;;;3.23;;
9508;SDS011;4792;50.088;8.122;2024-02-16T02:02:09;8.47;;;3.03;;
9508;SDS011;4792;50.088;8.122;2024-02-16T02:04:37;5.10;;;2.93;;
9508;SDS011;4792;50.088;8.122;2024-02-16T02:07:12;5.93;;;3.57;;
9508;SDS011;4792;50.088;8.122;2024-02-16T02:09:40;6.43;;;3.10;;
9508;SDS011;4792;50.088;8.122;2024-02-16T02:12:09;0.47;;;0.47;;
9508;SDS011;4792;50.088;8.122;2024-02-16T02:14:37;0.40;;;0.40;;
9508;SDS011;4792;50.088;8.122;2024-02-16T02:17:05;0.47;;;0.47;;
9508;SDS011;4792;50.088;8.122;2024-02-16T02:19:33;0.40;;;0.40;;
9508;SDS011;4792;50.088;8.122;2024-02-16T02:22:01;0.30;;;0.30;;
9508;SDS011;4792;50.088;8.122;2024-02-16T02:24:30;0.40;;;0.40;;
9508;SDS011;4792;50.088;8.122;2024-02-16T02:26:58;0.40;;;0.40;;
9508;SDS011;4792;50.088;8.122;2024-02-16T02:29:25;0.47;;;0.47;;
9508;SDS011;4792;50.088;8.122;2024-02-16T02:31:53;0.40;;;0.40;;
9508;SDS011;4792;50.088;8.122;2024-02-16T02:34:21;0.30;;;0.30;;
9508;SDS011;4792;50.088;8.122;2024-02-16T02:36:49;0.47;;;0.47;;
9508;SDS011;4792;50.088;8.122;2024-02-16T02:39:16;5.97;;;3.13;;
9508;SDS011;4792;50.088;8.122;2024-02-16T02:41:46;6.67;;;3.77;;
9508;SDS011;4792;50.088;8.122;2024-02-16T02:44:13;6.40;;;3.20;;
9508;SDS011;4792;50.088;8.122;2024-02-16T02:46:41;6.37;;;3.13;;
9508;SDS011;4792;50.088;8.122;2024-02-16T02:49:09;7.10;;;3.67;;
9508;SDS011;4792;50.088;8.122;2024-02-16T02:51:37;6.13;;;3.10;;
9508;SDS011;4792;50.088;8.122;2024-02-16T02:54:04;7.00;;;2.87;;
9508;SDS011;4792;50.088;8.122;2024-02-16T02:56:32;10.20;;;3.70;;
9508;SDS011;4792;50.088;8.122;2024-02-16T02:59:01;6.30;;;3.27;;
9508;SDS011;4792;50.088;8.122;2024-02-16T03:01:32;4.97;;;2.93;;
9508;SDS011;4792;50.088;8.122;2024-02-16T03:03:59;5.57;;;3.00;;
9508;SDS011;4792;50.088;8.122;2024-02-16T03:06:27;6.10;;;2.90;;
9508;SDS011;4792;50.088;8.122;2024-02-16T03:08:55;5.47;;;2.67;;
9508;SDS011;4792;50.088;8.122;2024-02-16T03:11:23;7.57;;;3.00;;
9508;SDS011;4792;50.088;8.122;2024-02-16T03:13:51;4.43;;;2.57;;
9508;SDS011;4792;50.088;8.122;2024-02-16T03:16:19;4.23;;;2.57;;
9508;SDS011;4792;50.088;8.122;2024-02-16T03:18:47;4.47;;;2.53;;
9508;SDS011;4792;50.088;8.122;2024-02-16T03:21:16;5.03;;;2.57;;
9508;SDS011;4792;50.088;8.122;2024-02-16T03:23:44;4.70;;;2.70;;
9508;SDS011;4792;50.088;8.122;2024-02-16T03:26:15;3.37;;;2.20;;
9508;SDS011;4792;50.088;8.122;2024-02-16T03:28:43;3.93;;;2.50;;
9508;SDS011;4792;50.088;8.122;2024-02-16T03:31:17;6.97;;;2.50;;
9508;SDS011;4792;50.088;8.122;2024-02-16T03:33:46;3.43;;;2.23;;
9508;SDS011;4792;50.088;8.122;2024-02-16T03:36:14;3.50;;;2.30;;
9508;SDS011;4792;50.088;8.122;2024-02-16T03:38:42;6.93;;;2.90;;
9508;SDS011;4792;50.088;8.122;2024-02-16T03:41:12;5.33;;;2.53;;
9508;SDS011;4792;50.088;8.122;2024-02-16T03:43:40;3.80;;;2.80;;
9508;SDS011;4792;50.088;8.122;2024-02-16T03:46:09;5.50;;;2.60;;
9508;SDS011;4792;50.088;8.122;2024-02-16T03:48:36;3.23;;;2.40;;
9508;SDS011;4792;50.088;8.122;2024-02-16T03:51:06;3.87;;;2.57;;
9508;SDS011;4792;50.088;8.122;2024-02-16T03:53:34;7.33;;;2.80;;
9508;SDS011;4792;50.088;8.122;2024-02-16T03:56:01;3.70;;;2.77;;
9508;SDS011;4792;50.088;8.122;2024-02-16T03:58:43;3.47;;;2.53;;
9508;SDS011;4792;50.088;8.122;2024-02-16T04:01:11;5.10;;;2.50;;
9508;SDS011;4792;50.088;8.122;2024-02-16T04:03:39;7.30;;;3.53;;
9508;SDS011;4792;50.088;8.122;2024-02-16T04:06:09;6.33;;;3.17;;
9508;SDS011;4792;50.088;8.122;2024-02-16T04:08:36;7.13;;;3.60;;
9508;SDS011;4792;50.088;8.122;2024-02-16T04:11:04;6.53;;;2.87;;
9508;SDS011;4792;50.088;8.122;2024-02-16T04:13:32;7.23;;;3.70;;
9508;SDS011;4792;50.088;8.122;2024-02-16T04:16:00;6.23;;;3.17;;
9508;SDS011;4792;50.088;8.122;2024-02-16T04:18:28;5.37;;;2.77;;
9508;SDS011;4792;50.088;8.122;2024-02-16T04:20:55;7.00;;;2.80;;
9508;SDS011;4792;50.088;8.122;2024-02-16T04:23:24;3.80;;;2.63;;
9508;SDS011;4792;50.088;8.122;2024-02-16T04:25:52;5.53;;;2.87;;
9508;SDS011;4792;50.088;8.122;2024-02-16T04:28:20;4.77;;;3.10;;
9508;SDS011;4792;50.088;8.122;2024-02-16T04:30:47;5.73;;;3.10;;
9508;SDS011;4792;50.088;8.122;2024-02-16T04:33:15;6.13;;;2.60;;
9508;SDS011;4792;50.088;8.122;2024-02-16T04:35:43;5.87;;;3.10;;
9508;SDS011;4792;50.088;8.122;2024-02-16T04:38:12;8.03;;;3.20;;
9508;SDS011;4792;50.088;8.122;2024-02-16T04:40:42;7.07;;;3.40;;
9508;SDS011;4792;50.088;8.122;2024-02-16T04:43:09;6.13;;;3.57;;
9508;SDS011;4792;50.088;8.122;2024-02-16T04:45:37;9.40;;;3.20;;
9508;SDS011;4792;50.088;8.122;2024-02-16T04:48:05;5.20;;;3.17;;
9508;SDS011;4792;50.088;8.122;2024-02-16T04:50:33;6.03;;;3.67;;
9508;SDS011;4792;50.088;8.122;2024-02-16T04:53:01;4.47;;;3.40;;
9508;SDS011;4792;50.088;8.122;2024-02-16T04:55:29;5.87;;;4.00;;
9508;SDS011;4792;50.088;8.122;2024-02-16T04:57:58;5.07;;;3.20;;
9508;SDS011;4792;50.088;8.122;2024-02-16T05:00:26;4.97;;;3.20;;
9508;SDS011;4792;50.088;8.122;2024-02-16T05:02:54;4.27;;;3.13;;
9508;SDS011;4792;50.088;8.122;2024-02-16T05:05:22;6.63;;;3.17;;
9508;SDS011;4792;50.088;8.122;2024-02-16T05:07:50;7.23;;;3.07;;
9508;SDS011;4792;50.088;8.122;2024-02-16T05:10:18;5.13;;;2.97;;
9508;SDS011;4792;50.088;8.122;2024-02-16T05:12:46;5.27;;;2.93;;
9508;SDS011;4792;50.088;8.122;2024-02-16T05:15:16;3.93;;;3.00;;
9508;SDS011;4792;50.088;8.122;2024-02-16T05:17:46;6.83;;;3.43;;
9508;SDS011;4792;50.088;8.122;2024-02-16T05:20:15;6.07;;;3.30;;
9508;SDS011;4792;50.088;8.122;2024-02-16T05:22:43;6.30;;;3.07;;
9508;SDS011;4792;50.088;8.122;2024-02-16T05:25:12;9.57;;;3.43;;
9508;SDS011;4792;50.088;8.122;2024-02-16T05:27:40;4.40;;;2.90;;
9508;SDS011;4792;50.088;8.122;2024-02-16T05:30:09;7.83;;;2.83;;
9508;SDS011;4792;50.088;8.122;2024-02-16T05:32:40;5.27;;;3.00;;
9508;SDS011;4792;50.088;8.122;2024-02-16T05:35:08;4.47;;;2.87;;
9508;SDS011;4792;50.088;8.122;2024-02-16T05:37:39;4.17;;;2.93;;
9508;SDS011;4792;50.088;8.122;2024-02-16T05:40:07;6.83;;;3.03;;
9508;SDS011;4792;50.088;8.122;2024-02-16T05:42:46;5.27;;;2.90;;
9508;SDS011;4792;50.088;8.122;2024-02-16T05:45:13;4.97;;;3.63;;
9508;SDS011;4792;50.088;8.122;2024-02-16T05:47:43;6.07;;;3.33;;
9508;SDS011;4792;50.088;8.122;2024-02-16T05:50:12;6.33;;;3.10;;
9508;SDS011;4792;50.088;8.122;2024-02-16T05:52:41;6.43;;;3.23;;
9508;SDS011;4792;50.088;8.122;2024-02-16T05:55:09;4.50;;;3.20;;
9508;SDS011;4792;50.088;8.122;2024-02-16T05:57:37;6.40;;;3.17;;
9508;SDS011;4792;50.088;8.122;2024-02-16T06:00:06;5.57;;;3.37;;
9508;SDS011;4792;50.088;8.122;2024-02-16T06:02:35;7.27;;;3.63;;
9508;SDS011;4792;50.088;8.122;2024-02-16T06:05:05;4.93;;;3.03;;
9508;SDS011;4792;50.088;8.122;2024-02-16T06:07:34;5.60;;;3.07;;
9508;SDS011;4792;50.088;8.122;2024-02-16T06:10:05;4.53;;;2.97;;
9508;SDS011;4792;50.088;8.122;2024-02-16T06:12:37;5.10;;;2.73;;
9508;SDS011;4792;50.088;8.122;2024-02-16T06:15:05;6.10;;;3.00;;
9508;SDS011;4792;50.088;8.122;2024-02-16T06:17:34;3.93;;;2.97;;
9508;SDS011;4792;50.088;8.122;2024-02-16T06:20:04;4.47;;;3.10;;
9508;SDS011;4792;50.088;8.122;2024-02-16T06:22:35;4.20;;;3.17;;
9508;SDS011;4792;50.088;8.122;2024-02-16T06:25:03;8.00;;;3.70;;
9508;SDS011;4792;50.088;8.122;2024-02-16T06:27:31;7.77;;;4.80;;
9508;SDS011;4792;50.088;8.122;2024-02-16T06:29:59;8.83;;;3.43;;
9508;SDS011;4792;50.088;8.122;2024-02-16T06:32:27;4.63;;;2.70;;
9508;SDS011;4792;50.088;8.122;2024-02-16T06:34:56;4.97;;;3.00;;
9508;SDS011;4792;50.088;8.122;2024-02-16T06:37:25;8.20;;;2.93;;
9508;SDS011;4792;50.088;8.122;2024-02-16T06:39:53;5.27;;;2.97;;
9508;SDS011;4792;50.088;8.122;2024-02-16T06:42:21;6.60;;;2.80;;
9508;SDS011;4792;50.088;8.122;2024-02-16T06:44:48;3.93;;;2.67;;
9508;SDS011;4792;50.088;8.122;2024-02-16T06:47:16;5.10;;;2.73;;
9508;SDS011;4792;50.088;8.122;2024-02-16T06:49:44;5.90;;;3.10;;
9508;SDS011;4792;50.088;8.122;2024-02-16T06:52:13;5.40;;;3.20;;
9508;SDS011;4792;50.088;8.122;2024-02-16T06:54:43;6.13;;;2.83;;
9508;SDS011;4792;50.088;8.122;2024-02-16T06:57:10;6.57;;;3.07;;
9508;SDS011;4792;50.088;8.122;2024-02-16T06:59:38;5.07;;;3.07;;
9508;SDS011;4792;50.088;8.122;2024-02-16T07:02:06;6.03;;;3.60;;
9508;SDS011;4792;50.088;8.122;2024-02-16T07:04:35;5.47;;;2.93;;
9508;SDS011;4792;50.088;8.122;2024-02-16T07:07:03;6.73;;;3.60;;
9508;SDS011;4792;50.088;8.122;2024-02-16T07:09:33;6.50;;;3.27;;
9508;SDS011;4792;50.088;8.122;2024-02-16T07:12:03;6.10;;;3.50;;
9508;SDS011;4792;50.088;8.122;2024-02-16T07:14:33;7.37;;;3.50;;
9508;SDS011;4792;50.088;8.122;2024-02-16T07:17:00;6.83;;;3.70;;
9508;SDS011;4792;50.088;8.122;2024-02-16T07:19:28;6.77;;;3.77;;
9508;SDS011;4792;50.088;8.122;2024-02-16T07:21:56;5.97;;;3.67;;
9508;SDS011;4792;50.088;8.122;2024-02-16T07:24:23;7.30;;;3.80;;
9508;SDS011;4792;50.088;8.122;2024-02-16T07:26:52;7.43;;;4.03;;
9508;SDS011;4792;50.088;8.122;2024-02-16T07:29:21;6.60;;;3.50;;
9508;SDS011;4792;50.088;8.122;2024-02-16T07:31:48;4.40;;;3.47;;
9508;SDS011;4792;50.088;8.122;2024-02-16T07:34:17;5.87;;;3.60;;
9508;SDS011;4792;50.088;8.122;2024-02-16T07:36:45;6.17;;;4.00;;
9508;SDS011;4792;50.088;8.122;2024-02-16T07:39:13;8.00;;;3.77;;
9508;SDS011;4792;50.088;8.122;2024-02-16T07:41:40;6.03;;;3.97;;
9508;SDS011;4792;50.088;8.122;2024-02-16T07:44:08;7.33;;;3.97;;
9508;SDS011;4792;50.088;8.122;2024-02-16T07:46:40;6.47;;;3.93;;
9508;SDS011;4792;50.088;8.122;2024-02-16T07:49:12;9.60;;;4.87;;
9508;SDS011;4792;50.088;8.122;2024-02-16T07:51:40;6.83;;;4.37;;
9508;SDS011;4792;50.088;8.122;2024-02-16T07:54:08;10.10;;;4.17;;
9508;SDS011;4792;50.088;8.122;2024-02-16T07:56:36;7.07;;;4.00;;
9508;SDS011;4792;50.088;8.122;2024-02-16T07:59:03;7.20;;;4.30;;
9508;SDS011;4792;50.088;8.122;2024-02-16T08:01:31;7.20;;;4.40;;
9508;SDS011;4792;50.088;8.122;2024-02-16T08:04:00;4.83;;;4.00;;
9508;SDS011;4792;50.088;8.122;2024-02-16T08:06:31;6.43;;;4.40;;
9508;SDS011;4792;50.088;8.122;2024-02-16T08:09:00;7.60;;;4.10;;
9508;SDS011;4792;50.088;8.122;2024-02-16T08:11:27;7.80;;;4.00;;
9508;SDS011;4792;50.088;8.122;2024-02-16T08:13:55;6.10;;;3.97;;
9508;SDS011;4792;50.088;8.122;2024-02-16T08:16:26;7.10;;;4.20;;
9508;SDS011;4792;50.088;8.122;2024-02-16T08:18:54;7.43;;;4.00;;
9508;SDS011;4792;50.088;8.122;2024-02-16T08:21:24;7.30;;;4.20;;
9508;SDS011;4792;50.088;8.122;2024-02-16T08:23:51;7.20;;;4.20;;
9508;SDS011;4792;50.088;8.122;2024-02-16T08:26:19;7.87;;;3.93;;
9508;SDS011;4792;50.088;8.122;2024-02-16T08:28:47;7.83;;;4.10;;
9508;SDS011;4792;50.088;8.122;2024-02-16T08:31:15;5.13;;;3.80;;
9508;SDS011;4792;50.088;8.122;2024-02-16T08:33:44;6.43;;;4.30;;
9508;SDS011;4792;50.088;8.122;2024-02-16T08:36:13;6.13;;;4.17;;
9508;SDS011;4792;50.088;8.122;2024-02-16T08:38:42;8.43;;;4.30;;
9508;SDS011;4792;50.088;8.122;2024-02-16T08:41:10;6.23;;;4.60;;
9508;SDS011;4792;50.088;8.122;2024-02-16T08:43:38;7.57;;;4.57;;
9508;SDS011;4792;50.088;8.122;2024-02-16T08:46:05;5.37;;;4.03;;
9508;SDS011;4792;50.088;8.122;2024-02-16T08:48:34;8.97;;;3.97;;
9508;SDS011;4792;50.088;8.122;2024-02-16T08:51:02;8.17;;;4.20;;
9508;SDS011;4792;50.088;8.122;2024-02-16T08:53:32;7.93;;;4.67;;
9508;SDS011;4792;50.088;8.122;2024-02-16T08:56:01;7.53;;;4.03;;
9508;SDS011;4792;50.088;8.122;2024-02-16T08:58:29;7.43;;;3.60;;
9508;SDS011;4792;50.088;8.122;2024-02-16T09:00:57;7.70;;;3.47;;
9508;SDS011;4792;50.088;8.122;2024-02-16T09:03:25;4.87;;;3.03;;
9508;SDS011;4792;50.088;8.122;2024-02-16T09:05:53;4.93;;;3.10;;
9508;SDS011;4792;50.088;8.122;2024-02-16T09:08:21;6.23;;;3.60;;
9508;SDS011;4792;50.088;8.122;2024-02-16T09:10:48;5.13;;;3.20;;
9508;SDS011;4792;50.088;8.122;2024-02-16T09:13:18;6.23;;;3.30;;
9508;SDS011;4792;50.088;8.122;2024-02-16T09:15:49;6.93;;;3.10;;
9508;SDS011;4792;50.088;8.122;2024-02-16T09:18:17;6.57;;;3.40;;
9508;SDS011;4792;50.088;8.122;2024-02-16T09:20:45;7.13;;;3.40;;
9508;SDS011;4792;50.088;8.122;2024-02-16T09:23:13;7.40;;;3.67;;
9508;SDS011;4792;50.088;8.122;2024-02-16T09:25:40;6.67;;;3.33;;
9508;SDS011;4792;50.088;8.122;2024-02-16T09:28:11;6.27;;;3.53;;
9508;SDS011;4792;50.088;8.122;2024-02-16T09:30:53;9.63;;;3.50;;
9508;SDS011;4792;50.088;8.122;2024-02-16T09:33:21;4.77;;;3.13;;
9508;SDS011;4792;50.088;8.122;2024-02-16T09:35:50;5.57;;;3.30;;
9508;SDS011;4792;50.088;8.122;2024-02-16T09:38:18;4.53;;;3.00;;
9508;SDS011;4792;50.088;8.122;2024-02-16T09:40:46;7.87;;;2.83;;
9508;SDS011;4792;50.088;8.122;2024-02-16T09:43:22;5.43;;;3.13;;
9508;SDS011;4792;50.088;8.122;2024-02-16T09:45:53;9.63;;;3.37;;
9508;SDS011;4792;50.088;8.122;2024-02-16T09:48:22;6.53;;;3.50;;
9508;SDS011;4792;50.088;8.122;2024-02-16T09:50:50;8.87;;;3.87;;
9508;SDS011;4792;50.088;8.122;2024-02-16T09:53:18;6.93;;;3.60;;
9508;SDS011;4792;50.088;8.122;2024-02-16T09:55:48;8.03;;;3.10;;
9508;SDS011;4792;50.088;8.122;2024-02-16T09:58:16;5.67;;;3.10;;
9508;SDS011;4792;50.088;8.122;2024-02-16T10:00:48;6.83;;;3.43;;
9508;SDS011;4792;50.088;8.122;2024-02-16T10:03:24;4.23;;;3.00;;
9508;SDS011;4792;50.088;8.122;2024-02-16T10:06:03;7.20;;;3.40;;
9508;SDS011;4792;50.088;8.122;2024-02-16T10:08:31;6.73;;;3.00;;
9508;SDS011;4792;50.088;8.122;2024-02-16T10:11:02;4.27;;;3.00;;
9508;SDS011;4792;50.088;8.122;2024-02-16T10:13:31;6.13;;;3.00;;
9508;SDS011;4792;50.088;8.122;2024-02-16T10:16:05;5.33;;;3.00;;
9508;SDS011;4792;50.088;8.122;2024-02-16T10:18:36;5.57;;;2.67;;
9508;SDS011;4792;50.088;8.122;2024-02-16T10:21:05;8.03;;;2.90;;
9508;SDS011;4792;50.088;8.122;2024-02-16T10:23:33;9.83;;;3.43;;
9508;SDS011;4792;50.088;8.122;2024-02-16T10:26:09;9.07;;;2.80;;
9508;SDS011;4792;50.088;8.122;2024-02-16T10:28:37;5.90;;;3.17;;
9508;SDS011;4792;50.088;8.122;2024-02-16T10:31:05;4.70;;;2.97;;
9508;SDS011;4792;50.088;8.122;2024-02-16T10:33:33;6.07;;;2.93;;
9508;SDS011;4792;50.088;8.122;2024-02-16T10:36:03;4.97;;;2.87;;
9508;SDS011;4792;50.088;8.122;2024-02-16T10:38:34;10.27;;;3.17;;
9508;SDS011;4792;50.088;8.122;2024-02-16T10:41:03;5.60;;;3.23;;
9508;SDS011;4792;50.088;8.122;2024-02-16T10:43:32;4.90;;;2.90;;
9508;SDS011;4792;50.088;8.122;2024-02-16T10:45:59;4.80;;;2.23;;
9508;SDS011;4792;50.088;8.122;2024-02-16T10:48:28;5.63;;;3.10;;
9508;SDS011;4792;50.088;8.122;2024-02-16T10:50:56;5.47;;;2.70;;
9508;SDS011;4792;50.088;8.122;2024-02-16T10:53:25;5.40;;;3.03;;
9508;SDS011;4792;50.088;8.122;2024-02-16T10:55:56;6.77;;;3.00;;
9508;SDS011;4792;50.088;8.122;2024-02-16T10:58:24;4.43;;;2.67;;
9508;SDS011;4792;50.088;8.122;2024-02-16T11:00:55;3.37;;;2.30;;
9508;SDS011;4792;50.088;8.122;2024-02-16T11:03:24;5.10;;;2.53;;
9508;SDS011;4792;50.088;8.122;2024-02-16T11:05:53;4.63;;;3.10;;
9508;SDS011;4792;50.088;8.122;2024-02-16T11:08:25;4.10;;;2.77;;
9508;SDS011;4792;50.088;8.122;2024-02-16T11:10:55;4.63;;;2.87;;
9508;SDS011;4792;50.088;8.122;2024-02-16T11:13:23;4.07;;;2.97;;
9508;SDS011;4792;50.088;8.122;2024-02-16T11:15:58;6.37;;;3.03;;
9508;SDS011;4792;50.088;8.122;2024-02-16T11:18:27;6.30;;;3.20;;
9508;SDS011;4792;50.088;8.122;2024-02-16T11:20:59;8.13;;;3.27;;
9508;SDS011;4792;50.088;8.122;2024-02-16T11:23:29;6.73;;;3.03;;
9508;SDS011;4792;50.088;8.122;2024-02-16T11:26:00;8.67;;;3.27;;
9508;SDS011;4792;50.088;8.122;2024-02-16T11:28:30;4.90;;;2.80;;
9508;SDS011;4792;50.088;8.122;2024-02-16T11:30:59;6.20;;;3.07;;
9508;SDS011;4792;50.088;8.122;2024-02-16T11:33:27;6.90;;;2.90;;
9508;SDS011;4792;50.088;8.122;2024-02-16T11:35:56;5.13;;;2.80;;
9508;SDS011;4792;50.088;8.122;2024-02-16T11:38:25;7.50;;;3.33;;
9508;SDS011;4792;50.088;8.122;2024-02-16T11:40:55;5.87;;;2.90;;
9508;SDS011;4792;50.088;8.122;2024-02-16T11:43:24;5.37;;;2.97;;
9508;SDS011;4792;50.088;8.122;2024-02-16T11:45:52;5.03;;;3.00;;
9508;SDS011;4792;50.088;8.122;2024-02-16T11:48:20;4.33;;;3.00;;
9508;SDS011;4792;50.088;8.122;2024-02-16T11:50:49;9.37;;;3.10;;
9508;SDS011;4792;50.088;8.122;2024-02-16T11:53:17;5.83;;;2.80;;
9508;SDS011;4792;50.088;8.122;2024-02-16T11:55:46;8.87;;;3.30;;
9508;SDS011;4792;50.088;8.122;2024-02-16T11:58:16;6.13;;;3.50;;
9508;SDS011;4792;50.088;8.122;2024-02-16T12:00:45;5.70;;;3.00;;
9508;SDS011;4792;50.088;8.122;2024-02-16T12:03:17;9.00;;;3.90;;
9508;SDS011;4792;50.088;8.122;2024-02-16T12:05:50;12.17;;;4.57;;
9508;SDS011;4792;50.088;8.122;2024-02-16T12:08:18;6.00;;;3.10;;
9508;SDS011;4792;50.088;8.122;2024-02-16T12:10:46;6.03;;;2.90;;
9508;SDS011;4792;50.088;8.122;2024-02-16T12:13:17;5.83;;;3.20;;
9508;SDS011;4792;50.088;8.122;2024-02-16T12:15:45;5.97;;;3.07;;
9508;SDS011;4792;50.088;8.122;2024-02-16T12:18:19;6.67;;;3.07;;
9508;SDS011;4792;50.088;8.122;2024-02-16T12:20:56;7.17;;;3.03;;
9508;SDS011;4792;50.088;8.122;2024-02-16T12:23:24;6.23;;;3.20;;
9508;SDS011;4792;50.088;8.122;2024-02-16T12:25:52;8.10;;;3.37;;
9508;SDS011;4792;50.088;8.122;2024-02-16T12:28:24;9.90;;;3.70;;
9508;SDS011;4792;50.088;8.122;2024-02-16T12:30:53;4.13;;;3.20;;
9508;SDS011;4792;50.088;8.122;2024-02-16T12:33:24;5.67;;;3.00;;
9508;SDS011;4792;50.088;8.122;2024-02-16T12:35:52;6.67;;;3.40;;
9508;SDS011;4792;50.088;8.122;2024-02-16T12:38:20;6.10;;;3.10;;
9508;SDS011;4792;50.088;8.122;2024-02-16T12:40:48;6.13;;;2.93;;
9508;SDS011;4792;50.088;8.122;2024-02-16T12:43:16;7.47;;;3.10;;
9508;SDS011;4792;50.088;8.122;2024-02-16T12:45:46;5.27;;;3.20;;
9508;SDS011;4792;50.088;8.122;2024-02-16T12:48:14;3.67;;;2.90;;
9508;SDS011;4792;50.088;8.122;2024-02-16T12:50:42;8.00;;;3.23;;
9508;SDS011;4792;50.088;8.122;2024-02-16T12:53:10;5.17;;;2.80;;
9508;SDS011;4792;50.088;8.122;2024-02-16T12:55:38;6.00;;;2.80;;
9508;SDS011;4792;50.088;8.122;2024-02-16T12:58:08;5.37;;;3.00;;
9508;SDS011;4792;50.088;8.122;2024-02-16T13:00:36;5.03;;;3.23;;
9508;SDS011;4792;50.088;8.122;2024-02-16T13:03:05;5.60;;;3.60;;
9508;SDS011;4792;50.088;8.122;2024-02-16T13:05:34;6.73;;;3.23;;
9508;SDS011;4792;50.088;8.122;2024-02-16T13:08:02;9.80;;;3.80;;
9508;SDS011;4792;50.088;8.122;2024-02-16T13:10:30;5.43;;;3.47;;
9508;SDS011;4792;50.088;8.122;2024-02-16T13:12:57;7.87;;;3.40;;
9508;SDS011;4792;50.088;8.122;2024-02-16T13:15:25;7.20;;;3.40;;
9508;SDS011;4792;50.088;8.122;2024-02-16T13:17:54;6.73;;;3.80;;
9508;SDS011;4792;50.088;8.122;2024-02-16T13:20:24;11.37;;;5.77;;
9508;SDS011;4792;50.088;8.122;2024-02-16T13:22:52;8.27;;;4.77;;
9508;SDS011;4792;50.088;8.122;2024-02-16T13:25:19;5.43;;;4.03;;
9508;SDS011;4792;50.088;8.122;2024-02-16T13:27:48;9.23;;;3.70;;
9508;SDS011;4792;50.088;8.122;2024-02-16T13:30:16;7.33;;;3.73;;
9508;SDS011;4792;50.088;8.122;2024-02-16T13:32:44;6.87;;;3.80;;
9508;SDS011;4792;50.088;8.122;2024-02-16T13:35:12;8.07;;;3.93;;
9508;SDS011;4792;50.088;8.122;2024-02-16T13:37:46;9.73;;;3.77;;
9508;SDS011;4792;50.088;8.122;2024-02-16T13:40:14;10.03;;;3.60;;
9508;SDS011;4792;50.088;8.122;2024-02-16T13:42:43;7.67;;;3.60;;
9508;SDS011;4792;50.088;8.122;2024-02-16T13:45:11;6.23;;;3.17;;
9508;SDS011;4792;50.088;8.122;2024-02-16T13:47:39;9.20;;;3.27;;
9508;SDS011;4792;50.088;8.122;2024-02-16T13:50:07;9.40;;;3.30;;
9508;SDS011;4792;50.088;8.122;2024-02-16T13:52:35;10.10;;;4.07;;
9508;SDS011;4792;50.088;8.122;2024-02-16T13:55:07;7.73;;;3.33;;
9508;SDS011;4792;50.088;8.122;2024-02-16T13:57:35;7.30;;;3.23;;
9508;SDS011;4792;50.088;8.122;2024-02-16T14:00:06;5.43;;;3.23;;
9508;SDS011;4792;50.088;8.122;2024-02-16T14:02:34;7.10;;;3.43;;
9508;SDS011;4792;50.088;8.122;2024-02-16T14:05:02;11.23;;;3.13;;
9508;SDS011;4792;50.088;8.122;2024-02-16T14:07:30;6.83;;;3.50;;
9508;SDS011;4792;50.088;8.122;2024-02-16T14:10:09;8.20;;;3.63;;
9508;SDS011;4792;50.088;8.122;2024-02-16T14:12:37;5.60;;;3.17;;
9508;SDS011;4792;50.088;8.122;2024-02-16T14:15:05;8.77;;;3.17;;
9508;SDS011;4792;50.088;8.122;2024-02-16T14:17:33;6.73;;;3.10;;
9508;SDS011;4792;50.088;8.122;2024-02-16T14:20:01;5.23;;;3.30;;
9508;SDS011;4792;50.088;8.122;2024-02-16T14:22:29;5.13;;;2.97;;
9508;SDS011;4792;50.088;8.122;2024-02-16T14:24:57;6.70;;;3.00;;
9508;SDS011;4792;50.088;8.122;2024-02-16T14:27:26;5.53;;;3.00;;
9508;SDS011;4792;50.088;8.122;2024-02-16T14:29:53;6.87;;;3.07;;
9508;SDS011;4792;50.088;8.122;2024-02-16T14:32:21;5.70;;;2.83;;
9508;SDS011;4792;50.088;8.122;2024-02-16T14:34:49;6.53;;;3.10;;
9508;SDS011;4792;50.088;8.122;2024-02-16T14:37:17;6.37;;;3.10;;
9508;SDS011;4792;50.088;8.122;2024-02-16T14:39:45;10.43;;;3.00;;
9508;SDS011;4792;50.088;8.122;2024-02-16T14:42:14;6.10;;;2.90;;
9508;SDS011;4792;50.088;8.122;2024-02-16T14:44:43;6.07;;;3.10;;
9508;SDS011;4792;50.088;8.122;2024-02-16T14:47:10;7.70;;;3.10;;
9508;SDS011;4792;50.088;8.122;2024-02-16T14:49:38;4.07;;;3.10;;
9508;SDS011;4792;50.088;8.122;2024-02-16T14:52:06;7.57;;;3.20;;
9508;SDS011;4792;50.088;8.122;2024-02-16T14:54:35;6.77;;;3.20;;
9508;SDS011;4792;50.088;8.122;2024-02-16T14:57:03;5.53;;;2.77;;
9508;SDS011;4792;50.088;8.122;2024-02-16T14:59:31;6.00;;;2.67;;
9508;SDS011;4792;50.088;8.122;2024-02-16T15:02:00;5.80;;;3.03;;
9508;SDS011;4792;50.088;8.122;2024-02-16T15:04:28;6.97;;;3.07;;
9508;SDS011;4792;50.088;8.122;2024-02-16T15:06:57;7.77;;;2.80;;
9508;SDS011;4792;50.088;8.122;2024-02-16T15:09:24;11.13;;;3.37;;
9508;SDS011;4792;50.088;8.122;2024-02-16T15:11:52;6.40;;;3.20;;
9508;SDS011;4792;50.088;8.122;2024-02-16T15:14:20;6.80;;;3.27;;
9508;SDS011;4792;50.088;8.122;2024-02-16T15:16:48;8.10;;;3.60;;
9508;SDS011;4792;50.088;8.122;2024-02-16T15:19:17;7.03;;;3.30;;
9508;SDS011;4792;50.088;8.122;2024-02-16T15:21:46;7.37;;;3.60;;
9508;SDS011;4792;50.088;8.122;2024-02-16T15:24:13;8.57;;;4.30;;